Terminal Aerodrome Forecast
Issued by NWS Sterling, VA

Current Version | Previous Version | Graphics & Text | Print | Product List | Glossary On
Versions: 1 2 3 4 5 6 7 8 9 10 11 12 13 14 15 16 17 18 19 20 21
678
FTUS41 KLWX 190913 AAA
TAFDCA
TAF AMD
KDCA 190913Z 1909/2006 35009KT P6SM FEW020
     FM191600 36009G16KT P6SM SCT035
     FM200000 35008KT P6SM SKC=

USA.gov is the U.S. government's official web portal to all federal, state and local government web resources and services.